sensor_id;sensor_type;location;lat;lon;timestamp;pressure;altitude;pressure_sealevel;temperature;humidity
31337;BME280;22846;42.654;23.314;2022-12-29T00:01:58;95400.06;;;24.13;54.76
31337;BME280;22846;42.654;23.314;2022-12-29T00:04:23;95399.28;;;24.13;54.41
31337;BME280;22846;42.654;23.314;2022-12-29T00:06:49;95398.50;;;24.12;54.27
31337;BME280;22846;42.654;23.314;2022-12-29T00:09:16;95395.44;;;24.10;54.80
31337;BME280;22846;42.654;23.314;2022-12-29T00:11:42;95400.53;;;24.08;54.52
31337;BME280;22846;42.654;23.314;2022-12-29T00:14:11;95411.44;;;24.08;54.79
31337;BME280;22846;42.654;23.314;2022-12-29T00:16:55;95405.97;;;24.08;54.45
31337;BME280;22846;42.654;23.314;2022-12-29T00:19:21;95402.91;;;24.06;54.54
31337;BME280;22846;42.654;23.314;2022-12-29T00:22:11;95405.66;;;24.06;54.70
31337;BME280;22846;42.654;23.314;2022-12-29T00:24:55;95405.28;;;24.04;54.73
31337;BME280;22846;42.654;23.314;2022-12-29T00:27:28;95411.50;;;24.05;54.80
31337;BME280;22846;42.654;23.314;2022-12-29T00:30:14;95416.22;;;24.04;54.77
31337;BME280;22846;42.654;23.314;2022-12-29T00:32:58;95406.47;;;24.03;54.82
31337;BME280;22846;42.654;23.314;2022-12-29T00:35:52;95410.38;;;24.02;54.86
31337;BME280;22846;42.654;23.314;2022-12-29T00:38:19;95412.34;;;24.02;54.88
31337;BME280;22846;42.654;23.314;2022-12-29T00:41:04;95410.03;;;24.00;54.92
31337;BME280;22846;42.654;23.314;2022-12-29T00:43:48;95419.00;;;24.01;54.73
31337;BME280;22846;42.654;23.314;2022-12-29T00:46:32;95419.41;;;23.99;54.89
31337;BME280;22846;42.654;23.314;2022-12-29T00:48:58;95422.13;;;23.99;54.77
31337;BME280;22846;42.654;23.314;2022-12-29T00:51:42;95428.00;;;23.98;54.87
31337;BME280;22846;42.654;23.314;2022-12-29T00:54:08;95425.28;;;23.98;54.64
31337;BME280;22846;42.654;23.314;2022-12-29T00:56:34;95420.25;;;23.96;54.41
31337;BME280;22846;42.654;23.314;2022-12-29T00:59:04;95420.25;;;23.96;54.85
31337;BME280;22846;42.654;23.314;2022-12-29T01:01:30;95425.72;;;23.96;54.85
31337;BME280;22846;42.654;23.314;2022-12-29T01:03:56;95418.69;;;23.95;54.75
31337;BME280;22846;42.654;23.314;2022-12-29T01:06:22;95420.25;;;23.96;54.80
31337;BME280;22846;42.654;23.314;2022-12-29T01:08:48;95419.47;;;23.96;54.55
31337;BME280;22846;42.654;23.314;2022-12-29T01:11:33;95418.69;;;23.95;54.85
31337;BME280;22846;42.654;23.314;2022-12-29T01:13:58;95411.69;;;23.94;54.41
31337;BME280;22846;42.654;23.314;2022-12-29T01:16:24;95405.44;;;23.94;54.86
31337;BME280;22846;42.654;23.314;2022-12-29T01:18:49;95414.44;;;23.94;54.84
31337;BME280;22846;42.654;23.314;2022-12-29T01:21:14;95405.44;;;23.94;54.52
31337;BME280;22846;42.654;23.314;2022-12-29T01:23:41;95403.94;;;23.93;54.54
31337;BME280;22846;42.654;23.314;2022-12-29T01:26:11;95403.63;;;23.88;54.70
31337;BME280;22846;42.654;23.314;2022-12-29T01:28:37;95410.56;;;23.92;54.45
31337;BME280;22846;42.654;23.314;2022-12-29T01:31:05;95395.06;;;23.86;54.34
31337;BME280;22846;42.654;23.314;2022-12-29T01:33:31;95389.63;;;23.86;54.71
31337;BME280;22846;42.654;23.314;2022-12-29T01:36:00;95402.78;;;23.91;54.74
31337;BME280;22846;42.654;23.314;2022-12-29T01:38:26;95397.31;;;23.91;54.44
31337;BME280;22846;42.654;23.314;2022-12-29T01:40:51;95389.13;;;23.91;54.32
31337;BME280;22846;42.654;23.314;2022-12-29T01:43:17;95393.81;;;23.90;54.50
31337;BME280;22846;42.654;23.314;2022-12-29T01:45:48;95376.03;;;23.82;54.35
31337;BME280;22846;42.654;23.314;2022-12-29T01:48:15;95386.06;;;23.89;54.49
31337;BME280;22846;42.654;23.314;2022-12-29T01:50:46;95392.72;;;23.88;54.28
31337;BME280;22846;42.654;23.314;2022-12-29T01:53:25;95388.44;;;23.87;54.37
31337;BME280;22846;42.654;23.314;2022-12-29T01:55:55;95388.44;;;23.87;54.41
31337;BME280;22846;42.654;23.314;2022-12-29T01:58:24;95387.63;;;23.86;54.22
31337;BME280;22846;42.654;23.314;2022-12-29T02:00:52;95388.44;;;23.87;54.22
31337;BME280;22846;42.654;23.314;2022-12-29T02:03:19;95388.44;;;23.87;53.98
31337;BME280;22846;42.654;23.314;2022-12-29T02:05:52;95380.63;;;23.85;54.14
31337;BME280;22846;42.654;23.314;2022-12-29T02:08:26;95373.66;;;23.84;54.28
31337;BME280;22846;42.654;23.314;2022-12-29T02:10:53;95366.72;;;23.80;54.24
31337;BME280;22846;42.654;23.314;2022-12-29T02:13:19;95373.66;;;23.84;54.23
31337;BME280;22846;42.654;23.314;2022-12-29T02:18:41;95370.56;;;23.82;54.04
31337;BME280;22846;42.654;23.314;2022-12-29T02:32:00;95371.38;;;23.79;54.11
31337;BME280;22846;42.654;23.314;2022-12-29T02:37:26;95371.03;;;23.77;54.23
31337;BME280;22846;42.654;23.314;2022-12-29T02:43:35;95375.72;;;23.77;54.19
31337;BME280;22846;42.654;23.314;2022-12-29T02:46:15;95371.03;;;23.77;53.66
31337;BME280;22846;42.654;23.314;2022-12-29T02:49:19;95376.91;;;23.76;54.11
31337;BME280;22846;42.654;23.314;2022-12-29T02:51:52;95379.63;;;23.76;53.99
31337;BME280;22846;42.654;23.314;2022-12-29T02:54:20;95365.28;;;23.68;53.96
31337;BME280;22846;42.654;23.314;2022-12-29T02:59:46;95362.88;;;23.74;53.73
31337;BME280;22846;42.654;23.314;2022-12-29T03:16:32;95355.53;;;23.71;53.72
31337;BME280;22846;42.654;23.314;2022-12-29T03:19:15;95355.91;;;23.69;54.03
31337;BME280;22846;42.654;23.314;2022-12-29T03:22:00;95351.25;;;23.70;53.74
31337;BME280;22846;42.654;23.314;2022-12-29T03:24:48;95345.78;;;23.70;53.92
31337;BME280;22846;42.654;23.314;2022-12-29T03:27:22;95349.72;;;23.69;53.49
31337;BME280;22846;42.654;23.314;2022-12-29T03:29:56;95348.91;;;23.68;53.87
31337;BME280;22846;42.654;23.314;2022-12-29T03:32:26;95351.66;;;23.68;53.50
31337;BME280;22846;42.654;23.314;2022-12-29T03:34:54;95346.97;;;23.69;53.40
31337;BME280;22846;42.654;23.314;2022-12-29T03:37:27;95351.66;;;23.68;53.78
31337;BME280;22846;42.654;23.314;2022-12-29T03:39:55;95351.66;;;23.68;53.75
31337;BME280;22846;42.654;23.314;2022-12-29T03:42:25;95353.63;;;23.68;53.68
31337;BME280;22846;42.654;23.314;2022-12-29T03:44:54;95345.44;;;23.68;53.38
31337;BME280;22846;42.654;23.314;2022-12-29T03:47:21;95351.66;;;23.68;53.64
31337;BME280;22846;42.654;23.314;2022-12-29T03:49:48;95357.53;;;23.67;53.58
31337;BME280;22846;42.654;23.314;2022-12-29T03:52:14;95365.28;;;23.68;53.24
31337;BME280;22846;42.654;23.314;2022-12-29T03:54:40;95365.72;;;23.67;53.59
31337;BME280;22846;42.654;23.314;2022-12-29T03:57:05;95362.22;;;23.66;53.62
31337;BME280;22846;42.654;23.314;2022-12-29T03:59:30;95370.41;;;23.66;53.55
31337;BME280;22846;42.654;23.314;2022-12-29T04:01:56;95368.44;;;23.67;53.22
31337;BME280;22846;42.654;23.314;2022-12-29T04:04:21;95375.88;;;23.66;53.59
31337;BME280;22846;42.654;23.314;2022-12-29T04:06:47;95378.19;;;23.68;53.46
31337;BME280;22846;42.654;23.314;2022-12-29T04:09:12;95378.69;;;23.86;53.29
31337;BME280;22846;42.654;23.314;2022-12-29T04:11:38;95371.56;;;24.14;52.81
31337;BME280;22846;42.654;23.314;2022-12-29T04:14:03;95374.50;;;24.46;52.05
31337;BME280;22846;42.654;23.314;2022-12-29T04:16:29;95370.59;;;24.67;52.00
31337;BME280;22846;42.654;23.314;2022-12-29T04:18:54;95379.28;;;24.81;51.50
31337;BME280;22846;42.654;23.314;2022-12-29T04:21:20;95370.84;;;24.91;51.53
31337;BME280;22846;42.654;23.314;2022-12-29T04:23:45;95367.03;;;25.05;51.03
31337;BME280;22846;42.654;23.314;2022-12-29T04:26:10;95368.38;;;25.16;50.92
31337;BME280;22846;42.654;23.314;2022-12-29T04:28:36;95356.88;;;25.25;50.77
31337;BME280;22846;42.654;23.314;2022-12-29T04:31:03;95368.84;;;25.47;50.11
31337;BME280;22846;42.654;23.314;2022-12-29T04:33:29;95374.84;;;25.58;50.05
31337;BME280;22846;42.654;23.314;2022-12-29T04:35:54;95383.16;;;25.70;49.76
31337;BME280;22846;42.654;23.314;2022-12-29T04:38:22;95378.66;;;25.79;49.62
31337;BME280;22846;42.654;23.314;2022-12-29T04:40:48;95378.81;;;25.88;49.40
31337;BME280;22846;42.654;23.314;2022-12-29T04:43:14;95374.13;;;25.89;49.19
31337;BME280;22846;42.654;23.314;2022-12-29T04:45:43;95383.88;;;26.06;49.16
31337;BME280;22846;42.654;23.314;2022-12-29T04:48:09;95384.47;;;26.13;48.89
31337;BME280;22846;42.654;23.314;2022-12-29T04:50:35;95393.34;;;26.17;48.86
31337;BME280;22846;42.654;23.314;2022-12-29T04:53:00;95398.66;;;26.24;48.88
31337;BME280;22846;42.654;23.314;2022-12-29T04:55:26;95392.75;;;26.26;48.72
31337;BME280;22846;42.654;23.314;2022-12-29T04:57:52;95400.69;;;26.36;48.67
31337;BME280;22846;42.654;23.314;2022-12-29T05:00:18;95399.88;;;26.39;48.57
31337;BME280;22846;42.654;23.314;2022-12-29T05:02:43;95401.38;;;26.40;48.74
31337;BME280;22846;42.654;23.314;2022-12-29T05:05:08;95392.13;;;26.34;48.44
31337;BME280;22846;42.654;23.314;2022-12-29T05:07:34;95402.94;;;26.25;48.64
31337;BME280;22846;42.654;23.314;2022-12-29T05:09:59;95400.47;;;26.15;49.00
31337;BME280;22846;42.654;23.314;2022-12-29T05:12:25;95401.94;;;26.03;48.91
31337;BME280;22846;42.654;23.314;2022-12-29T05:14:50;95392.50;;;25.88;49.31
31337;BME280;22846;42.654;23.314;2022-12-29T05:17:16;95401.00;;;25.78;49.65
31337;BME280;22846;42.654;23.314;2022-12-29T05:19:41;95396.19;;;25.66;50.09
31337;BME280;22846;42.654;23.314;2022-12-29T05:22:06;95406.59;;;25.55;50.10
31337;BME280;22846;42.654;23.314;2022-12-29T05:24:32;95405.31;;;25.44;50.43
31337;BME280;22846;42.654;23.314;2022-12-29T05:26:57;95399.28;;;25.33;50.45
31337;BME280;22846;42.654;23.314;2022-12-29T05:29:23;95399.56;;;25.19;50.59
31337;BME280;22846;42.654;23.314;2022-12-29T05:31:48;95397.72;;;25.16;50.76
31337;BME280;22846;42.654;23.314;2022-12-29T05:34:13;95389.00;;;25.01;50.73
31337;BME280;22846;42.654;23.314;2022-12-29T05:36:39;95401.91;;;25.01;50.94
31337;BME280;22846;42.654;23.314;2022-12-29T05:39:05;95395.44;;;24.91;50.95
31337;BME280;22846;42.654;23.314;2022-12-29T05:41:32;95410.00;;;24.88;51.17
31337;BME280;22846;42.654;23.314;2022-12-29T05:43:58;95412.44;;;24.83;51.33
31337;BME280;22846;42.654;23.314;2022-12-29T05:46:23;95417.97;;;24.79;51.43
31337;BME280;22846;42.654;23.314;2022-12-29T05:48:48;95412.22;;;24.74;51.37
31337;BME280;22846;42.654;23.314;2022-12-29T05:51:14;95409.97;;;24.69;51.58
31337;BME280;22846;42.654;23.314;2022-12-29T05:53:39;95415.50;;;24.66;51.09
31337;BME280;22846;42.654;23.314;2022-12-29T05:56:05;95412.84;;;24.62;51.15
31337;BME280;22846;42.654;23.314;2022-12-29T05:58:30;95423.09;;;24.58;51.70
31337;BME280;22846;42.654;23.314;2022-12-29T06:00:56;95427.41;;;24.56;51.75
31337;BME280;22846;42.654;23.314;2022-12-29T06:03:21;95417.72;;;24.51;51.65
31337;BME280;22846;42.654;23.314;2022-12-29T06:05:47;95422.84;;;24.49;51.43
31337;BME280;22846;42.654;23.314;2022-12-29T06:08:12;95425.63;;;24.46;51.46
31337;BME280;22846;42.654;23.314;2022-12-29T06:10:38;95425.31;;;24.44;51.42
31337;BME280;22846;42.654;23.314;2022-12-29T06:13:03;95425.34;;;24.40;51.88
31337;BME280;22846;42.654;23.314;2022-12-29T06:15:31;95431.19;;;24.39;51.65
31337;BME280;22846;42.654;23.314;2022-12-29T06:17:57;95433.59;;;24.37;51.85
31337;BME280;22846;42.654;23.314;2022-12-29T06:20:22;95431.25;;;24.35;51.97
31337;BME280;22846;42.654;23.314;2022-12-29T06:22:47;95430.91;;;24.33;51.88
31337;BME280;22846;42.654;23.314;2022-12-29T06:25:15;95429.38;;;24.32;51.95
31337;BME280;22846;42.654;23.314;2022-12-29T06:27:41;95429.78;;;24.31;51.64
31337;BME280;22846;42.654;23.314;2022-12-29T06:30:07;95426.69;;;24.29;51.98
31337;BME280;22846;42.654;23.314;2022-12-29T06:32:32;95429.41;;;24.29;52.06
31337;BME280;22846;42.654;23.314;2022-12-29T06:34:58;95431.41;;;24.28;51.69
31337;BME280;22846;42.654;23.314;2022-12-29T06:37:24;95431.47;;;24.25;51.67
31337;BME280;22846;42.654;23.314;2022-12-29T06:39:49;95433.00;;;24.26;51.70
31337;BME280;22846;42.654;23.314;2022-12-29T06:42:15;95434.94;;;24.25;51.84
31337;BME280;22846;42.654;23.314;2022-12-29T06:44:40;95440.84;;;24.24;51.71
31337;BME280;22846;42.654;23.314;2022-12-29T06:47:06;95447.47;;;24.23;51.90
31337;BME280;22846;42.654;23.314;2022-12-29T06:49:31;95442.03;;;24.23;51.97
31337;BME280;22846;42.654;23.314;2022-12-29T06:51:56;95437.00;;;24.21;51.81
31337;BME280;22846;42.654;23.314;2022-12-29T06:54:23;95440.13;;;24.20;51.70
31337;BME280;22846;42.654;23.314;2022-12-29T06:56:48;95440.91;;;24.20;52.15
31337;BME280;22846;42.654;23.314;2022-12-29T06:59:15;95445.25;;;24.18;52.03
31337;BME280;22846;42.654;23.314;2022-12-29T07:01:41;95453.44;;;24.18;51.97
31337;BME280;22846;42.654;23.314;2022-12-29T07:04:06;95447.97;;;24.18;51.99
31337;BME280;22846;42.654;23.314;2022-12-29T07:06:31;95429.00;;;24.07;52.07
31337;BME280;22846;42.654;23.314;2022-12-29T07:08:57;95447.59;;;24.16;52.20
31337;BME280;22846;42.654;23.314;2022-12-29T07:11:23;95445.31;;;24.14;52.08
31337;BME280;22846;42.654;23.314;2022-12-29T07:13:48;95442.56;;;24.14;52.07
31337;BME280;22846;42.654;23.314;2022-12-29T07:16:14;95443.75;;;24.13;52.27
31337;BME280;22846;42.654;23.314;2022-12-29T07:18:39;95420.25;;;23.96;51.90
31337;BME280;22846;42.654;23.314;2022-12-29T07:21:05;95444.53;;;24.14;52.14
31337;BME280;22846;42.654;23.314;2022-12-29T07:23:30;95442.16;;;24.16;51.85
31337;BME280;22846;42.654;23.314;2022-12-29T07:26:03;95440.97;;;24.17;52.22
31337;BME280;22846;42.654;23.314;2022-12-29T07:28:29;95452.59;;;24.21;52.08
31337;BME280;22846;42.654;23.314;2022-12-29T07:30:55;95444.00;;;24.22;52.29
31337;BME280;22846;42.654;23.314;2022-12-29T07:33:20;95445.13;;;24.25;51.69
31337;BME280;22846;42.654;23.314;2022-12-29T07:35:46;95435.31;;;24.27;52.12
31337;BME280;22846;42.654;23.314;2022-12-29T07:38:11;95430.22;;;24.29;51.80
31337;BME280;22846;42.654;23.314;2022-12-29T07:40:36;95431.34;;;24.32;51.51
31337;BME280;22846;42.654;23.314;2022-12-29T07:43:03;95436.72;;;24.35;51.93
31337;BME280;22846;42.654;23.314;2022-12-29T07:45:29;95434.34;;;24.37;51.56
31337;BME280;22846;42.654;23.314;2022-12-29T07:47:55;95439.75;;;24.41;51.98
31337;BME280;22846;42.654;23.314;2022-12-29T07:50:20;95451.44;;;24.45;51.54
31337;BME280;22846;42.654;23.314;2022-12-29T07:52:45;95440.44;;;24.48;51.80
31337;BME280;22846;42.654;23.314;2022-12-29T07:55:13;95446.31;;;24.47;52.01
31337;BME280;22846;42.654;23.314;2022-12-29T07:57:39;95444.28;;;24.51;51.33
31337;BME280;22846;42.654;23.314;2022-12-29T08:00:05;95450.81;;;24.57;51.98
31337;BME280;22846;42.654;23.314;2022-12-29T08:02:30;95449.56;;;24.61;52.26
31337;BME280;22846;42.654;23.314;2022-12-29T08:04:56;95452.66;;;24.63;52.17
31337;BME280;22846;42.654;23.314;2022-12-29T08:07:21;95460.03;;;24.66;51.43
31337;BME280;22846;42.654;23.314;2022-12-29T08:09:47;95463.09;;;24.68;50.86
31337;BME280;22846;42.654;23.314;2022-12-29T08:12:12;95457.22;;;24.70;51.56
31337;BME280;22846;42.654;23.314;2022-12-29T08:14:37;95455.59;;;24.72;51.61
31337;BME280;22846;42.654;23.314;2022-12-29T08:17:03;95449.03;;;24.70;51.65
31337;BME280;22846;42.654;23.314;2022-12-29T08:19:28;95451.25;;;24.75;51.22
31337;BME280;22846;42.654;23.314;2022-12-29T08:21:55;95461.00;;;24.76;51.60
31337;BME280;22846;42.654;23.314;2022-12-29T08:24:21;95446.16;;;24.77;51.54
31337;BME280;22846;42.654;23.314;2022-12-29T08:26:46;95448.44;;;24.78;51.38
31337;BME280;22846;42.654;23.314;2022-12-29T08:29:12;95446.50;;;24.78;51.49
31337;BME280;22846;42.654;23.314;2022-12-29T08:31:37;95449.56;;;24.80;51.21
31337;BME280;22846;42.654;23.314;2022-12-29T08:34:04;95450.34;;;24.81;51.16
31337;BME280;22846;42.654;23.314;2022-12-29T08:36:30;95451.19;;;24.78;51.33
31337;BME280;22846;42.654;23.314;2022-12-29T08:38:56;95453.03;;;24.84;51.23
31337;BME280;22846;42.654;23.314;2022-12-29T08:41:21;95444.38;;;24.86;51.52
31337;BME280;22846;42.654;23.314;2022-12-29T08:43:48;95447.91;;;24.86;51.36
31337;BME280;22846;42.654;23.314;2022-12-29T08:46:14;95447.47;;;24.88;51.37
31337;BME280;22846;42.654;23.314;2022-12-29T08:48:39;95449.03;;;24.89;51.09
31337;BME280;22846;42.654;23.314;2022-12-29T08:51:05;95449.78;;;24.89;51.05
31337;BME280;22846;42.654;23.314;2022-12-29T08:53:30;95450.13;;;24.91;51.07
31337;BME280;22846;42.654;23.314;2022-12-29T08:55:58;95448.19;;;24.92;50.89
31337;BME280;22846;42.654;23.314;2022-12-29T08:58:25;95444.25;;;24.93;50.88
31337;BME280;22846;42.654;23.314;2022-12-29T09:00:55;95441.50;;;24.93;51.14
31337;BME280;22846;42.654;23.314;2022-12-29T09:03:21;95438.38;;;24.94;51.10
31337;BME280;22846;42.654;23.314;2022-12-29T09:05:49;95431.00;;;24.91;50.97
31337;BME280;22846;42.654;23.314;2022-12-29T09:08:15;95437.19;;;24.95;51.00
31337;BME280;22846;42.654;23.314;2022-12-29T09:10:40;95431.28;;;24.97;50.98
31337;BME280;22846;42.654;23.314;2022-12-29T09:13:06;95430.84;;;24.98;50.75
31337;BME280;22846;42.654;23.314;2022-12-29T09:15:31;95427.72;;;25.00;50.70
31337;BME280;22846;42.654;23.314;2022-12-29T09:17:56;95428.91;;;24.99;51.18
31337;BME280;22846;42.654;23.314;2022-12-29T09:20:22;95427.78;;;24.96;47.16
31337;BME280;22846;42.654;23.314;2022-12-29T09:22:48;95411.22;;;24.45;32.59
31337;BME280;22846;42.654;23.314;2022-12-29T09:25:14;95430.44;;;24.38;42.78
31337;BME280;22846;42.654;23.314;2022-12-29T09:27:40;95418.03;;;24.34;44.72
31337;BME280;22846;42.654;23.314;2022-12-29T09:30:09;95424.69;;;24.33;46.11
31337;BME280;22846;42.654;23.314;2022-12-29T09:32:35;95415.31;;;24.34;45.87
31337;BME280;22846;42.654;23.314;2022-12-29T09:35:01;95413.19;;;24.45;46.13
31337;BME280;22846;42.654;23.314;2022-12-29T09:37:27;95415.41;;;24.50;46.41
31337;BME280;22846;42.654;23.314;2022-12-29T09:39:52;95407.50;;;24.55;46.56
31337;BME280;22846;42.654;23.314;2022-12-29T09:45:18;95408.09;;;24.66;47.60
31337;BME280;22846;42.654;23.314;2022-12-29T09:47:46;95377.88;;;24.54;47.48
31337;BME280;22846;42.654;23.314;2022-12-29T09:50:37;95400.84;;;24.76;48.10
31337;BME280;22846;42.654;23.314;2022-12-29T09:53:11;95395.31;;;24.79;48.57
31337;BME280;22846;42.654;23.314;2022-12-29T09:56:16;95393.03;;;24.77;48.24
31337;BME280;22846;42.654;23.314;2022-12-29T09:58:58;95395.25;;;24.82;48.83
31337;BME280;22846;42.654;23.314;2022-12-29T10:01:44;95392.09;;;24.84;47.43
31337;BME280;22846;42.654;23.314;2022-12-29T10:04:12;95370.25;;;24.84;47.35
31337;BME280;22846;42.654;23.314;2022-12-29T10:06:44;95370.91;;;24.88;47.35
31337;BME280;22846;42.654;23.314;2022-12-29T10:15:17;95371.56;;;24.95;47.80
31337;BME280;22846;42.654;23.314;2022-12-29T10:17:56;95371.13;;;24.97;47.59
31337;BME280;22846;42.654;23.314;2022-12-29T10:23:19;95362.84;;;25.00;47.44
31337;BME280;22846;42.654;23.314;2022-12-29T10:25:47;95368.66;;;25.02;47.68
31337;BME280;22846;42.654;23.314;2022-12-29T10:28:22;95347.34;;;24.94;47.74
31337;BME280;22846;42.654;23.314;2022-12-29T10:30:49;95357.28;;;25.04;47.65
31337;BME280;22846;42.654;23.314;2022-12-29T10:33:19;95360.94;;;24.97;47.89
31337;BME280;22846;42.654;23.314;2022-12-29T10:38:34;95354.19;;;25.02;47.78
31337;BME280;22846;42.654;23.314;2022-12-29T10:41:11;95354.47;;;25.07;48.17
31337;BME280;22846;42.654;23.314;2022-12-29T10:43:47;95345.88;;;25.09;48.36
31337;BME280;22846;42.654;23.314;2022-12-29T10:46:18;95343.09;;;25.12;47.88
31337;BME280;22846;42.654;23.314;2022-12-29T10:48:44;95350.09;;;25.13;48.11
31337;BME280;22846;42.654;23.314;2022-12-29T10:51:24;95335.28;;;25.11;47.88
31337;BME280;22846;42.654;23.314;2022-12-29T10:53:55;95335.28;;;25.11;45.00
31337;BME280;22846;42.654;23.314;2022-12-29T10:56:39;95333.94;;;24.99;41.92
31337;BME280;22846;42.654;23.314;2022-12-29T10:59:16;95325.66;;;24.68;33.69
31337;BME280;22846;42.654;23.314;2022-12-29T11:01:54;95330.34;;;24.48;42.22
31337;BME280;22846;42.654;23.314;2022-12-29T11:06:56;95313.66;;;24.42;42.88
31337;BME280;22846;42.654;23.314;2022-12-29T11:09:30;95314.03;;;24.44;43.41
31337;BME280;22846;42.654;23.314;2022-12-29T11:11:56;95317.81;;;24.50;43.38
31337;BME280;22846;42.654;23.314;2022-12-29T11:14:31;95301.00;;;24.52;44.36
31337;BME280;22846;42.654;23.314;2022-12-29T11:17:02;95303.09;;;24.64;44.76
31337;BME280;22846;42.654;23.314;2022-12-29T11:19:30;95313.91;;;24.71;44.27
31337;BME280;22846;42.654;23.314;2022-12-29T11:24:44;95307.78;;;24.63;35.30
31337;BME280;22846;42.654;23.314;2022-12-29T11:27:22;95301.63;;;24.59;41.41
31337;BME280;22846;42.654;23.314;2022-12-29T11:29:52;95299.66;;;24.60;42.96
31337;BME280;22846;42.654;23.314;2022-12-29T11:32:23;95284.91;;;24.57;43.45
31337;BME280;22846;42.654;23.314;2022-12-29T11:34:50;95298.25;;;24.71;43.54
31337;BME280;22846;42.654;23.314;2022-12-29T11:42:21;95288.13;;;24.87;45.14
31337;BME280;22846;42.654;23.314;2022-12-29T11:44:48;95287.91;;;24.98;45.81
31337;BME280;22846;42.654;23.314;2022-12-29T11:47:29;95280.53;;;24.95;45.65
31337;BME280;22846;42.654;23.314;2022-12-29T11:50:02;95289.34;;;25.02;45.97
31337;BME280;22846;42.654;23.314;2022-12-29T11:52:33;95285.78;;;25.05;45.61
31337;BME280;22846;42.654;23.314;2022-12-29T11:55:02;95286.44;;;25.09;45.76
31337;BME280;22846;42.654;23.314;2022-12-29T11:57:28;95286.75;;;25.15;44.98
31337;BME280;22846;42.654;23.314;2022-12-29T11:59:55;95278.19;;;25.13;44.91
31337;BME280;22846;42.654;23.314;2022-12-29T12:02:40;95281.94;;;25.19;44.86
31337;BME280;22846;42.654;23.314;2022-12-29T12:05:30;95283.50;;;25.20;45.20
31337;BME280;22846;42.654;23.314;2022-12-29T12:08:19;95273.25;;;25.24;45.47
31337;BME280;22846;42.654;23.314;2022-12-29T12:10:58;95272.47;;;25.23;45.72
31337;BME280;22846;42.654;23.314;2022-12-29T12:13:33;95269.66;;;25.27;45.62
31337;BME280;22846;42.654;23.314;2022-12-29T12:16:08;95273.06;;;25.31;45.45
31337;BME280;22846;42.654;23.314;2022-12-29T12:18:46;95269.50;;;25.34;45.56
31337;BME280;22846;42.654;23.314;2022-12-29T12:21:18;95263.16;;;25.37;45.59
31337;BME280;22846;42.654;23.314;2022-12-29T12:24:00;95265.03;;;25.40;45.59
31337;BME280;22846;42.654;23.314;2022-12-29T12:26:35;95259.13;;;25.41;46.10
31337;BME280;22846;42.654;23.314;2022-12-29T12:29:22;95259.06;;;25.45;46.09
31337;BME280;22846;42.654;23.314;2022-12-29T12:34:42;95260.16;;;25.47;46.21
31337;BME280;22846;42.654;23.314;2022-12-29T12:42:51;95256.81;;;25.56;46.15
31337;BME280;22846;42.654;23.314;2022-12-29T12:50:58;95250.31;;;25.65;46.21
31337;BME280;22846;42.654;23.314;2022-12-29T13:18:38;95255.13;;;25.62;46.13
31337;BME280;22846;42.654;23.314;2022-12-29T13:21:27;95250.84;;;25.61;46.23
31337;BME280;22846;42.654;23.314;2022-12-29T13:26:39;95250.75;;;25.64;46.00
31337;BME280;22846;42.654;23.314;2022-12-29T13:37:56;95262.78;;;25.66;45.53
31337;BME280;22846;42.654;23.314;2022-12-29T13:40:26;95256.22;;;25.64;45.54
31337;BME280;22846;42.654;23.314;2022-12-29T13:42:55;95258.34;;;25.57;44.97
31337;BME280;22846;42.654;23.314;2022-12-29T13:45:24;95259.47;;;25.59;45.45
31337;BME280;22846;42.654;23.314;2022-12-29T13:48:07;95260.75;;;25.55;45.97
31337;BME280;22846;42.654;23.314;2022-12-29T13:50:38;95258.53;;;25.50;46.39
31337;BME280;22846;42.654;23.314;2022-12-29T13:53:15;95251.69;;;25.42;46.23
31337;BME280;22846;42.654;23.314;2022-12-29T13:58:44;95253.16;;;25.30;46.81
31337;BME280;22846;42.654;23.314;2022-12-29T14:03:57;95257.75;;;25.17;46.48
31337;BME280;22846;42.654;23.314;2022-12-29T14:06:31;95258.63;;;25.14;47.04
31337;BME280;22846;42.654;23.314;2022-12-29T14:09:03;95261.47;;;25.27;46.83
31337;BME280;22846;42.654;23.314;2022-12-29T14:14:14;95259.22;;;25.69;46.49
31337;BME280;22846;42.654;23.314;2022-12-29T14:16:44;95262.34;;;25.84;46.41
31337;BME280;22846;42.654;23.314;2022-12-29T14:21:51;95273.19;;;26.03;46.02
31337;BME280;22846;42.654;23.314;2022-12-29T14:34:52;95283.13;;;26.42;44.99
31337;BME280;22846;42.654;23.314;2022-12-29T14:37:35;95291.25;;;26.45;44.60
31337;BME280;22846;42.654;23.314;2022-12-29T14:40:24;95287.84;;;26.53;44.88
31337;BME280;22846;42.654;23.314;2022-12-29T14:42:53;95291.28;;;26.57;44.96
31337;BME280;22846;42.654;23.314;2022-12-29T14:47:49;95291.06;;;26.64;44.80
31337;BME280;22846;42.654;23.314;2022-12-29T14:50:21;95290.94;;;26.68;44.75
31337;BME280;22846;42.654;23.314;2022-12-29T14:53:01;95288.09;;;26.71;44.70
31337;BME280;22846;42.654;23.314;2022-12-29T14:55:41;95283.50;;;26.68;44.87
31337;BME280;22846;42.654;23.314;2022-12-29T14:58:31;95290.75;;;26.75;44.66
31337;BME280;22846;42.654;23.314;2022-12-29T15:00:58;95298.00;;;26.81;44.88
31337;BME280;22846;42.654;23.314;2022-12-29T15:03:45;95297.56;;;26.83;44.59
31337;BME280;22846;42.654;23.314;2022-12-29T15:06:13;95293.31;;;26.82;44.74
31337;BME280;22846;42.654;23.314;2022-12-29T15:08:49;95291.09;;;26.77;44.40
31337;BME280;22846;42.654;23.314;2022-12-29T15:11:22;95297.88;;;26.72;44.55
31337;BME280;22846;42.654;23.314;2022-12-29T15:13:48;95295.25;;;26.69;44.54
31337;BME280;22846;42.654;23.314;2022-12-29T15:16:26;95292.16;;;26.67;45.14
31337;BME280;22846;42.654;23.314;2022-12-29T15:18:54;95297.75;;;26.63;45.10
31337;BME280;22846;42.654;23.314;2022-12-29T15:21:25;95290.06;;;26.58;45.31